Kezdőlap
METAR-TAF:

METAR-TAF

Repülőterek :

New York, New York, Amerikai Egyesült Államok

földrajzi szélesség: 40-42-04N, földrajzi hosszúság: 074-00-32W, magasság: 2 m

Jelenlegi meteorológiai megfigyelések

A jelentés 45 perccel ezelõtt készült, 05:56 UTC
Nyugat-délnyugati szél 3 kt
Hőmérséklet 15°C
Páratartalom 94%
Légköri nyomás 1023 hPa
Látótávolság: 11.3 km
Borult 400 lábon

METAR: KJRB 260556Z AUTO 25003KT 7SM OVC004 15/14 A3021 RMK AO2 SLP229 T01500139 10178 20150 58003

Idő: 02:41 (06:41 UTC)


TAF: hiányzik

Meteorológiai megfigyelések és előrejelzések több, mint 4000 repülőtéren (METAR és TAF jelentéseket).

A térképen piros és sárga pontok jelzik az elérhető meteorológiai állomásokat.

Mozgassa az egeret a pont fölött, hogy megjelenjen az állomás neve.

Azután kattintson az időjárási megfigyelések és előrejelzések megtekintéséhez.

A térkép megváltoztatása: kattintson a fekete keresztel jelölt zöld gombra ráközelítéshez, a vonallal jelölt zöld gombra távolításhoz, vagy a zöld nyilakra a szomszédos térképek eléréséhez.


METAR-TAF: